Black Meadow Landing, California
Current Conditions -  °F | °C
As of 3:55 PM on Wednesday 22 Oct 2014 (Local Time) from KHII Reporting Station
Clear Clear  
Wind Chill: 91°   Ceiling: Unl
Heat Index: 91°   Visibility: 10mi
Dew Point: 37°   Wind: 5mph
Humidity: 15%   Direction: 70°ENE
Pressure: 29.89"   Gusts: NA
Location:  34.2861°N, 114.142°W
Report Text: KHII 222255Z AUTO 07004KT 10SM CLR 33/03 A2989 RMK AO2
Loading
Personal Weather Stations






























Interactive Weather Map
Tropical Storm Tracking
New forecast layout! Learn more

10-Day Weather Forecast

Advertisements
Track Severe Weather on mobile